Terminal Aerodrome Forecast
Issued by NWS

Home | Current Version | Previous Version | Text Only | Print | Product List | Glossary On
Versions: 1 2 3 4 5 6 7 8 9 10 11 12 13 14 15 16 17 18 19 20 21 22 23
339
FTUS44 KTSA 312114 AAB
TAFFYV
TAF AMD
KFYV 312114Z 3121/0118 01005KT P6SM VCSH FEW030 SCT040
      TEMPO 3122/3124 3SM -TSRA BKN030CB
     FM010200 02005KT P6SM BKN035
      TEMPO 0109/0113 3SM BR SCT002 SCT030=

USA.gov is the U.S. government's official web portal to all federal, state and local government web resources and services.